Flight Track Log - Related Links

Times and Time Zones

All times are in EDT time to prevent confusion due to time zone crossing. See the LT912 flight status page for this flight to view local times or setup timezone preferences in your user account.

Time Position Orientation Groundspeed Altitude Reporting Facility
EDT Latitude Longitude Course Direction KTS MPH feet Rate Location/Type
Sat 07:06:34 PM 58.5000 -111.1333 170° South 170 196 12,000  Level Edmonton Center
Sat 07:07:34 PM 58.4500 -111.1333 180° South 180 207 13,600 1,500 Climbing Edmonton Center
Sat 07:08:00 PM 58.3380 -111.1333 180° South  Level FlightAware Approximate
Sat 07:08:34 PM 58.3833 -111.1500 187° South 190 219 15,000  Level Edmonton Center
Sat 07:09:00 PM 58.2767 -111.1333 180° South  Level FlightAware Approximate
Sat 07:09:34 PM 58.3333 -111.1333 170° South 200 230 16,500  Level Edmonton Center
Sat 07:10:00 PM 58.2155 -111.1333 180° South  Level FlightAware Approximate
Sat 07:10:34 PM 58.2833 -111.1333 180° South 210 242 17,000  Level Edmonton Center
Sat 07:11:00 PM 58.1542 -111.1375 183° South  Level FlightAware Approximate
Sat 07:11:34 PM 58.2000 -111.1500 186° South 250 288 17,000  Level Edmonton Center
Sat 07:12:34 PM 58.1333 -111.1333 172° South 270 311 17,000  Level Edmonton Center
Sat 07:13:34 PM 58.0500 -111.1167 174° South 280 322 17,000  Level Edmonton Center
Sat 07:14:34 PM 57.9833 -111.1333 188° South 270 311 17,000  Level Edmonton Center
Sat 07:15:34 PM 57.8833 -111.1333 180° South 270 311 17,000  Level Edmonton Center
Sat 07:16:34 PM 57.8167 -111.1500 188° South 270 311 17,000  Level Edmonton Center
Sat 07:17:34 PM 57.7333 -111.1333 174° South 270 311 17,000  Level Edmonton Center
Sat 07:18:34 PM 57.6667 -111.1500 188° South 270 311 17,000  Level Edmonton Center
Sat 07:19:34 PM 57.5833 -111.1333 174° South 280 322 17,000  Level Edmonton Center
Sat 07:20:34 PM 57.5167 -111.1333 180° South 270 311 17,000 -300 Level Edmonton Center
Sat 07:21:34 PM 57.4333 -111.1500 186° South 270 311 16,400 -850 Descending Edmonton Center
Sat 07:22:34 PM 57.3667 -111.1333 172° South 290 334 15,300 -1,300 Descending Edmonton Center
Sat 07:23:34 PM 57.2833 -111.1500 186° South 290 334 13,800 -1,500 Descending Edmonton Center
Sat 07:24:34 PM 57.2000 -111.1333 174° South 290 334 12,300 -1,550 Descending Edmonton Center
Sat 07:25:34 PM 57.1000 -111.1500 185° South 290 334 10,700 -1,600 Descending Edmonton Center
Sat 07:26:34 PM 57.0167 -111.1333 174° South 280 322 9,100 -1,650 Descending Edmonton Center
Sat 07:27:34 PM 56.9500 -111.1333 180° South 270 311 7,400 -1,550 Descending Edmonton Center
Sat 07:28:34 PM 56.8833 -111.1500 188° South 230 265 6,000 -1,500 Descending Edmonton Center
Sat 07:29:34 PM 56.8333 -111.1333 170° South 210 242 4,400 -1,200 Descending Edmonton Center
Sat 07:30:34 PM 56.7667 -111.1333 180° South 200 230 3,600 -700 Descending Edmonton Center
Sat 07:31:34 PM 56.7167 -111.1500 190° South 190 219 3,000 -350 Descending Edmonton Center
Sat 07:32:34 PM 56.6667 -111.1333 170° South 180 207 2,900 -500 Descending Edmonton Center
Sat 07:33:34 PM 56.6333 -111.1667 209° Southwest 160 184 2,000 -850 Descending Edmonton Center
Sat 07:34:34 PM 56.6333 -111.2333 270° West 120 138 1,200 -400 Descending Edmonton Center
Sat 07:35:34 PM 56.6500 -111.2667 312° West 110 127 1,200  Level Edmonton Center

Login

Don't have an account? Register now (free) for customized features, flight alerts, and more!